aviador You're here:

BIAR Decoded Metar

AKUREYRI in ICELAND
Report Time2017-11-22 05:00:00
UTC Time2017-11-22 05:25:48
Flight Rules ifr IFR
Wind350° at 14 kt
W.Decomp.*RWY 01: 13.9 kt HW 1.5 kt LCW
W.Rank350° ranks 4
Current wind is above 350° avg. (10.4)
Visibility3200 m
Phenomena:Light Snow
Clouds:Overcast 008 Hf
Ceiling800 ft
Temp-2°C (ISA -17)
Dew Point-2°C (100% RH)
AAT-9.3°C
QNH1022 hPa
Density Alt-2,313 ft
Elevation7 ft
Report Wrong Elevation
Raw Report
METAR BIAR 220500Z 35014KT 3200 -SN OVC008 M02/M02 Q1022 RESN=

Extra information for BIAR:More info

Metar Taf Metar & Taf Last 4 Metars F.Rules Stats Wind Profile Meteogram Temp Stats Airport Information Weather charts Add Link Nearby VenuesMetar ALERT Operation Metar Decoded Social comments